Latest Weather Observations for Norfolk Island

IDN60801

Issued at 9:02 am EST Wednesday 25 May 2016 (issued every 30 minutes, with the page automatically refreshed every 10 minutes)

About weather observations | Map of weather stations | Latest weather observations for NSW | Other Formats
Station Details ID: 200288 Name: NORFOLK ISLAND AERO Lat: -29.04 Lon: 167.94 Height: 111.73 m
Data from the previous 72 hours. | See also: Recent months at Norfolk Island
Date/Time
EST
Temp
°C
App
Temp
°C
Dew
Point
Rel
Hum
%
Delta-T
°C
Wind Press
QNH
hPa
Press
MSL
hPa
Rain
since 9 am
mm
Dir
 
Spd
km/h
Gust
km/h
Spd
kts
Gust
kts
25/08:30am 20.8 17.2 14.1 65 3.9 W 26 39 14 21 1011.2 - 0.0
25/08:00am 21.0 15.0 12.1 56 5.0 W 35 48 19 26 1011.0 1010.8 3.8
25/07:40am 20.5 14.7 12.8 61 4.4 W 35 54 19 29 1010.9 - 3.8
25/07:30am 20.9 14.8 11.6 55 5.2 W 35 48 19 26 1010.9 - 3.8
25/07:00am 20.2 15.0 12.8 62 4.2 W 32 46 17 25 1010.7 - 3.8
25/06:30am 19.7 16.1 14.2 70 3.2 W 26 39 14 21 1010.7 - 3.8
25/06:00am 19.2 15.3 14.4 74 2.8 WSW 28 37 15 20 1010.5 - 3.8
25/05:30am 19.3 15.2 12.8 66 3.7 W 26 35 14 19 1010.3 - 3.8
25/05:00am 18.8 14.4 13.0 69 3.3 W 28 37 15 20 1010.2 1009.9 3.8
25/04:30am 18.8 15.4 12.4 66 3.6 W 22 32 12 17 1010.1 - 3.8
25/04:00am 18.5 15.6 12.4 67 3.4 W 19 28 10 15 1010.1 - 3.8
25/03:30am 18.3 15.8 12.4 68 3.3 W 17 24 9 13 1010.2 - 3.8
25/03:00am 18.3 16.3 12.6 69 3.2 WSW 15 24 8 13 1010.4 - 3.8
25/02:30am 18.4 16.5 14.1 76 2.5 W 17 24 9 13 1010.5 - 3.8
25/02:00am 18.4 17.2 16.1 86 1.4 W 17 26 9 14 1010.6 1010.4 3.8
25/01:30am 18.3 17.9 16.1 87 1.3 W 13 24 7 13 1010.8 - 3.8
25/01:00am 17.3 17.1 15.8 91 0.9 W 11 15 6 8 1010.9 - 3.8
25/12:30am 16.8 16.9 15.4 91 0.8 NW 9 13 5 7 1011.0 - 3.8
25/12:00am 16.8 16.8 15.3 91 0.9 WNW 9 15 5 8 1011.1 - 3.8
 
Date/Time
EST
Temp
°C
App
Temp
°C
Dew
Point
Rel
Hum
%
Delta-T
°C
Wind Press
QNH
hPa
Press
MSL
hPa
Rain
since 9 am
mm
Dir
 
Spd
km/h
Gust
km/h
Spd
kts
Gust
kts
24/11:30pm 16.8 16.4 15.3 91 0.9 WNW 11 17 6 9 1011.2 - 3.8
24/11:00pm 16.9 16.5 15.2 90 1.0 WNW 11 19 6 10 1011.3 1011.1 3.6
24/10:30pm 16.4 16.2 14.7 90 1.0 NW 9 15 5 8 1011.4 - 3.6
24/10:15pm 16.4 15.8 14.5 88 1.1 WNW 11 15 6 8 1011.5 - 3.6
24/10:00pm 16.1 15.9 14.7 91 0.8 NW 9 15 5 8 1011.6 - 3.4
24/09:59pm 16.2 16.0 14.6 90 0.9 NW 9 15 5 8 1011.6 - 3.4
24/09:55pm 16.2 16.0 14.6 90 0.9 NW 9 15 5 8 1011.6 - 3.4
24/09:30pm 16.9 16.4 15.9 94 0.6 NW 13 20 7 11 1011.7 - 2.6
24/09:11pm 16.8 15.3 15.4 91 0.8 WNW 17 28 9 15 1011.9 - 2.2
24/09:07pm 16.8 15.2 15.1 90 1.0 WNW 17 26 9 14 1012.0 - 2.0
24/09:00pm 16.6 16.2 15.1 91 0.9 WNW 11 19 6 10 1011.7 - 1.8
24/08:44pm 17.2 18.0 16.4 95 0.5 W 7 9 4 5 1011.6 - 1.6
24/08:30pm 17.4 16.0 16.6 95 0.5 WSW 19 26 10 14 1011.8 - 1.2
24/08:00pm 18.0 14.6 16.8 93 0.7 WSW 30 41 16 22 1011.7 1011.5 0.0
24/07:58pm 18.1 14.3 16.8 92 0.8 WSW 32 41 17 22 1011.7 - 0.0
24/07:56pm 18.0 14.2 16.8 93 0.7 WSW 32 41 17 22 1011.6 - 0.0
24/07:52pm 18.1 14.7 16.8 92 0.8 WSW 30 39 16 21 1011.6 - 0.0
24/07:34pm 18.4 15.4 16.7 90 1.0 WSW 28 43 15 23 1011.6 - 0.0
24/07:30pm 18.4 14.9 16.6 89 1.1 WSW 30 43 16 23 1011.6 - 0.0
24/07:22pm 18.8 15.4 16.8 88 1.2 WSW 30 41 16 22 1011.6 - 0.0
24/07:08pm 18.9 15.5 16.8 87 1.3 WSW 30 43 16 23 1011.5 - 0.0
24/07:02pm 19.0 15.2 16.7 86 1.4 WSW 32 50 17 27 1011.5 - 0.0
24/07:00pm 19.1 15.1 16.6 85 1.5 WSW 33 50 18 27 1011.5 - 0.0
24/06:30pm 20.5 18.0 15.1 71 3.2 W 22 35 12 19 1011.2 - 0.0
24/06:00pm 20.4 16.9 14.6 69 3.4 W 26 35 14 19 1011.1 - 0.0
24/05:30pm 20.3 16.8 13.5 65 3.9 W 24 35 13 19 1011.0 - 0.0
24/05:00pm 20.2 16.5 14.0 67 3.6 W 26 37 14 20 1011.0 1010.8 0.0
24/04:30pm 19.9 17.6 14.6 71 3.1 W 20 30 11 16 1010.7 - 0.0
24/04:00pm 19.7 17.6 16.2 80 2.1 WNW 22 39 12 21 1010.5 - 0.0
24/03:30pm 20.1 18.4 16.3 79 2.3 W 20 33 11 18 1010.7 - 0.0
24/03:00pm 20.1 17.4 16.6 80 2.1 W 26 41 14 22 1010.4 - 0.0
24/02:30pm 20.4 17.3 15.7 74 2.8 W 26 35 14 19 1010.5 - 0.0
24/02:00pm 20.3 18.0 15.8 75 2.7 WNW 22 33 12 18 1010.6 1010.4 0.0
24/01:30pm 19.2 15.4 14.8 75 2.6 W 28 41 15 22 1010.8 - 0.0
24/01:00pm 20.0 15.9 14.9 72 3.0 W 30 39 16 21 1010.8 - 0.0
24/12:40pm 20.3 16.4 14.5 69 3.4 W 28 46 15 25 1011.0 - 0.0
24/12:30pm 21.0 16.4 13.6 62 4.3 W 30 41 16 22 1011.1 - 0.0
24/12:00pm 21.1 16.5 13.5 62 4.4 W 30 43 16 23 1011.4 - 0.0
24/11:30am 20.9 15.6 12.6 59 4.7 WNW 32 46 17 25 1011.7 - 0.0
24/11:00am 21.3 17.2 13.7 62 4.4 W 28 37 15 20 1012.3 1012.1 0.0
24/10:30am 21.9 17.5 13.0 57 5.1 W 28 41 15 22 1012.9 - 0.0
24/10:00am 21.2 16.3 12.4 57 5.0 W 30 44 16 24 1013.3 - 0.0
24/09:30am 21.7 17.4 13.2 58 4.9 W 28 37 15 20 1013.6 - 0.0
24/09:00am 21.5 17.3 12.5 56 5.1 W 26 35 14 19 1013.8 - 0.0
24/08:30am 21.0 16.5 12.5 58 4.8 W 28 39 15 21 1013.9 - 0.0
24/08:00am 20.9 17.3 13.2 61 4.4 W 24 35 13 19 1013.8 1013.6 -
24/07:30am 20.6 16.1 12.5 59 4.6 W 28 41 15 22 1013.8 - -
24/07:00am 20.3 15.8 12.5 61 4.4 W 28 39 15 21 1013.6 - -
24/06:30am 19.7 15.1 12.2 62 4.2 W 28 39 15 21 1013.5 - -
24/06:00am 19.2 14.6 12.4 64 3.8 W 28 39 15 21 1013.3 - -
24/05:30am 19.0 14.9 12.6 66 3.6 W 26 39 14 21 1013.3 - -
24/05:00am 19.1 14.6 12.5 65 3.7 W 28 35 15 19 1013.2 1013.0 -
24/04:30am 18.9 14.3 12.3 65 3.7 W 28 37 15 20 1013.1 - -
24/04:00am 18.8 15.0 12.4 66 3.6 W 24 32 13 17 1013.1 - -
24/03:30am 18.8 14.2 12.2 65 3.7 W 28 37 15 20 1013.0 - -
24/03:00am 18.8 15.9 12.8 68 3.4 W 20 32 11 17 1012.9 - -
24/02:30am 18.7 15.9 13.1 70 3.2 W 20 32 11 17 1013.1 - -
24/02:00am 18.7 15.4 12.7 68 3.4 W 22 33 12 18 1013.2 1013.0 -
24/01:30am 18.7 15.6 12.1 65 3.7 W 20 32 11 17 1013.2 - -
24/01:00am 18.6 15.8 12.5 67 3.4 W 19 26 10 14 1013.3 - -
24/12:30am 18.6 15.8 12.7 68 3.3 W 19 30 10 16 1013.6 - -
24/12:00am 18.4 15.6 12.5 68 3.3 WSW 19 26 10 14 1013.7 - -
 
Date/Time
EST
Temp
°C
App
Temp
°C
Dew
Point
Rel
Hum
%
Delta-T
°C
Wind Press
QNH
hPa
Press
MSL
hPa
Rain
since 9 am
mm
Dir
 
Spd
km/h
Gust
km/h
Spd
kts
Gust
kts
23/11:30pm 18.5 16.1 12.6 68 3.3 WSW 17 26 9 14 1013.9 - -
23/11:00pm 18.0 16.2 13.2 73 2.7 WSW 15 20 8 11 1014.1 1013.8 -
23/10:30pm 18.1 16.3 13.2 73 2.8 SW 15 22 8 12 1013.9 - -
23/10:00pm 18.0 15.8 13.4 74 2.6 SW 17 24 9 13 1014.4 - -
23/09:30pm 18.1 15.8 13.0 72 2.9 SW 17 26 9 14 1014.4 - -
23/09:00pm 16.2 16.9 14.5 90 1.0 W 4 9 2 5 1014.5 - -
23/08:30pm 17.0 16.3 14.4 85 1.5 WSW 11 13 6 7 1014.4 - -
23/08:00pm 17.1 16.0 14.3 83 1.6 SW 13 15 7 8 1014.6 1014.3 -
23/07:30pm 16.9 16.7 14.8 87 1.2 SW 9 11 5 6 1014.5 - -
23/07:00pm 16.8 16.0 14.0 83 1.6 SW 11 15 6 8 1014.7 - -
23/06:30pm 16.2 15.7 13.7 85 1.4 WSW 9 13 5 7 1014.6 - -
23/06:29pm 16.2 15.7 13.7 85 1.4 WSW 9 13 5 7 1014.6 - -
23/06:00pm 16.7 12.4 14.4 86 1.3 SW 30 44 16 24 1014.3 - -
23/05:30pm 18.7 15.3 11.2 61 4.1 SW 20 28 11 15 1013.8 - -
23/05:00pm 18.5 14.6 10.8 61 4.2 SW 22 30 12 16 1013.5 1013.3 -
23/04:30pm 18.4 15.0 11.3 63 3.9 SW 20 28 11 15 1013.1 - -
23/04:00pm 18.6 15.2 11.3 62 4.0 SW 20 30 11 16 1013.0 - -
23/03:30pm 18.9 15.0 10.8 59 4.4 SW 22 32 12 17 1012.8 - -
23/03:00pm 19.6 14.9 10.6 56 4.9 SW 26 39 14 21 1012.8 - -
23/02:30pm 19.9 15.2 10.8 55 5.0 SSW 26 33 14 18 1012.8 - -
23/02:00pm 20.1 15.1 9.7 51 5.6 SSW 26 35 14 19 1012.5 1012.3 -
23/01:30pm 20.4 15.4 9.6 50 5.8 SW 26 41 14 22 1012.5 - -
23/01:00pm 20.5 15.2 9.7 50 5.8 SW 28 43 15 23 1012.8 - -
23/12:30pm 20.4 15.1 9.8 50 5.7 SW 28 41 15 22 1012.8 - -
23/12:00pm 19.7 14.5 10.3 54 5.1 SW 28 39 15 21 1012.9 - -
23/11:30am 20.5 15.8 12.1 58 4.7 SW 28 37 15 20 1013.3 - -
23/11:00am 20.7 15.9 11.5 55 5.1 SSW 28 37 15 20 1013.6 1013.4 -
23/10:30am 20.3 15.3 11.0 55 5.1 SW 28 35 15 19 1014.1 - -
23/10:00am 20.1 15.6 11.4 57 4.8 SSW 26 39 14 21 1014.4 - -
23/09:30am 20.0 15.6 12.8 63 4.1 SW 28 35 15 19 1014.7 - -
23/08:30am 20.0 15.8 11.1 56 4.9 SW 24 37 13 20 1015.1 - 0.0
23/08:00am 19.7 15.3 10.5 55 5.0 SSW 24 37 13 20 1015.0 1014.7 1.0
23/07:30am 19.4 15.6 11.0 58 4.6 SSW 22 37 12 20 1014.7 - 1.4
23/07:00am 18.6 13.8 10.2 58 4.5 SW 26 37 14 20 1014.8 - 1.4
23/06:00am 18.4 14.7 10.0 58 4.5 SSW 20 32 11 17 1014.6 - 1.4
23/05:30am 18.3 13.9 10.3 59 4.3 SSW 24 37 13 20 1014.4 - 1.4
23/05:00am 18.5 13.5 10.8 61 4.2 SSW 28 41 15 22 1014.1 1013.8 1.4
23/04:30am 18.5 13.3 10.3 59 4.4 SSW 28 41 15 22 1013.7 - 1.4
23/04:00am 18.6 14.1 10.0 57 4.6 SSW 24 41 13 22 1013.3 - 1.4
23/03:30am 18.3 13.8 11.4 64 3.8 SW 26 39 14 21 1013.0 - 1.4
23/03:00am 18.1 12.7 10.9 63 3.9 SSW 30 44 16 24 1013.1 - 1.4
23/02:30am 18.2 13.9 10.8 62 4.0 SW 24 39 13 21 1013.5 - 1.4
23/02:00am 18.2 14.0 11.2 63 3.8 SW 24 37 13 20 1013.7 1013.5 1.4
23/01:30am 17.9 13.1 11.7 67 3.4 SSW 28 39 15 21 1013.9 - 1.4
23/01:00am 18.0 12.7 11.2 64 3.7 SSW 30 43 16 23 1013.9 - 1.4
23/12:30am 17.9 13.2 11.9 68 3.3 SSW 28 41 15 22 1014.2 - 1.4
23/12:00am 18.1 14.1 11.8 66 3.5 SW 24 37 13 20 1014.4 - 1.2
 
Date/Time
EST
Temp
°C
App
Temp
°C
Dew
Point
Rel
Hum
%
Delta-T
°C
Wind Press
QNH
hPa
Press
MSL
hPa
Rain
since 9 am
mm
Dir
 
Spd
km/h
Gust
km/h
Spd
kts
Gust
kts
22/11:30pm 18.2 14.2 11.7 66 3.6 SW 24 39 13 21 1014.4 - 1.2
22/11:00pm 18.1 14.0 11.5 65 3.6 SSW 24 35 13 19 1014.8 1014.5 1.2
22/10:30pm 17.8 13.9 12.0 69 3.2 S 24 39 13 21 1015.0 - 1.2
22/10:00pm 18.3 13.0 11.2 63 3.9 SSW 30 41 16 22 1015.0 - 1.2
22/09:30pm 18.6 13.6 10.9 61 4.2 SSW 28 37 15 20 1015.3 - 1.2
22/09:00pm 18.1 13.7 10.5 61 4.1 SSW 24 37 13 20 1015.5 - 1.2
22/08:30pm 18.4 13.9 10.2 59 4.4 SSW 24 37 13 20 1015.7 - 1.2
22/08:00pm 18.2 13.7 9.9 58 4.4 SSW 24 33 13 18 1015.6 1015.3 1.2
22/07:30pm 18.1 13.3 10.3 60 4.2 SW 26 39 14 21 1015.6 - 1.2
22/07:00pm 18.3 13.6 10.5 60 4.2 SSW 26 39 14 21 1015.8 - 1.2
22/06:30pm 17.8 14.8 12.4 70 3.0 S 20 30 11 16 1015.8 - 1.2
22/06:00pm 18.0 14.1 12.0 68 3.3 SSW 24 35 13 19 1015.9 - 1.2
22/05:30pm 17.6 14.7 12.8 73 2.7 S 20 32 11 17 1016.1 - 1.2
22/05:00pm 17.9 13.8 13.9 77 2.3 SSW 28 41 15 22 1016.1 1015.8 1.2
22/04:30pm 17.4 14.4 12.6 73 2.7 SW 20 28 11 15 1016.0 - 1.2
22/04:06pm 18.0 13.7 13.2 73 2.7 SSW 28 54 15 29 1015.8 - 1.2
22/04:00pm 18.4 14.0 11.7 65 3.7 SSW 26 37 14 20 1015.9 - 1.2
22/03:30pm 18.3 14.4 12.0 66 3.5 SSW 24 39 13 21 1015.8 - 1.2
22/03:00pm 18.2 14.8 12.5 69 3.2 S 22 35 12 19 1015.8 - 1.2
22/02:55pm 17.9 14.4 13.3 74 2.6 S 24 33 13 18 1015.8 - 1.2
22/02:39pm 16.8 15.2 14.9 88 1.1 SW 17 30 9 16 1015.8 - 1.2
22/02:30pm 16.7 15.6 15.3 91 0.8 WSW 15 28 8 15 1015.8 - 1.0
22/02:16pm 17.1 14.5 14.9 87 1.3 SW 22 44 12 24 1015.8 - 0.8
22/02:00pm 18.9 16.8 13.5 71 3.1 SW 17 26 9 14 1015.6 1015.3 0.4
22/01:30pm 19.0 16.1 13.0 68 3.4 SSW 20 28 11 15 1015.7 - 0.4
22/01:00pm 18.8 14.5 12.0 64 3.8 SW 26 41 14 22 1015.9 - 0.4
22/12:30pm 19.3 15.3 12.9 66 3.6 SSW 26 41 14 22 1016.0 - 0.4
22/12:03pm 19.9 15.1 12.8 63 4.0 SSW 30 48 16 26 1016.2 - 0.4
22/12:00pm 20.1 16.0 13.7 66 3.7 SSW 28 41 15 22 1016.3 - 0.4
22/11:30am 19.6 14.6 11.0 57 4.7 SSW 28 37 15 20 1016.7 - 0.4
22/11:00am 19.4 16.6 13.3 68 3.5 S 20 32 11 17 1017.3 1017.0 0.4
22/10:30am 19.8 15.2 12.3 62 4.2 SSW 28 39 15 21 1017.8 - 0.4
22/10:00am 20.0 16.4 13.0 64 4.0 SSW 24 39 13 21 1018.3 - 0.4
22/09:43am 19.3 14.5 11.5 60 4.3 S 28 46 15 25 1018.5 - 0.4
22/09:30am 19.7 14.7 12.2 62 4.2 S 30 41 16 22 1018.7 - 0.4
22/09:00am 19.6 15.7 13.3 67 3.6 S 26 37 14 20 1018.7 - 0.4
22/08:30am 18.0 15.7 14.7 81 1.9 S 20 35 11 19 1018.7 - 0.4
22/08:28am 17.9 15.6 14.6 81 1.9 S 20 35 11 19 1018.7 - 0.4
22/08:15am 17.4 14.3 14.4 82 1.7 S 24 39 13 21 1018.9 - 0.4
22/08:00am 18.5 15.5 14.9 79 2.1 S 24 37 13 20 1018.9 1018.7 1.0

Other Formats:

Comma delimited format used in spreadsheet applications
http://www.bom.gov.au/fwo/IDN60801/IDN60801.94996.axf

JavaScript Object Notation format (JSON) in row-major order
http://www.bom.gov.au/fwo/IDN60801/IDN60801.94996.json